Terminal Aerodrome Forecast
Issued by NWS

Home | Current Version | Previous Version | Text Only | Print | Product List | Glossary On
Versions: 1 2 3 4 5 6 7 8 9 10 11 12 13 14
000
FTPA31 PHFO 021733
TAFHJR
TAF
PHJR 021733Z 0218/0318 06005KT P6SM SCT035 SCT060
     FM022000 15010KT P6SM VCSH SCT025 BKN035 BKN200
     FM030400 VRB03KT P6SM SCT035=

USA.gov is the U.S. government's official web portal to all federal, state and local government web resources and services.